createdAt,value
2023-02-12T00:00:39.884Z,34.10
2023-02-12T00:03:13.502Z,26.30
2023-02-12T00:05:42.066Z,30.20
2023-02-12T00:08:12.306Z,26.90
2023-02-12T00:10:48.471Z,29.30
2023-02-12T00:13:18.059Z,26.80
2023-02-12T00:15:46.575Z,24.00
2023-02-12T00:18:20.667Z,24.20
2023-02-12T00:20:54.456Z,25.80
2023-02-12T00:23:27.958Z,28.00
2023-02-12T00:25:56.937Z,26.60
2023-02-12T00:28:26.102Z,24.10
2023-02-12T00:30:54.605Z,27.60
2023-02-12T00:33:24.850Z,23.80
2023-02-12T00:35:59.267Z,24.50
2023-02-12T00:38:27.549Z,26.10
2023-02-12T00:40:56.126Z,22.50
2023-02-12T00:43:27.529Z,24.20
2023-02-12T00:45:56.524Z,29.10
2023-02-12T00:48:35.600Z,20.40
2023-02-12T00:51:09.000Z,21.20
2023-02-12T00:53:42.809Z,19.70
2023-02-12T00:56:11.373Z,21.40
2023-02-12T00:58:39.716Z,22.20
2023-02-12T01:01:15.012Z,22.10
2023-02-12T01:03:44.788Z,24.50
2023-02-12T01:06:12.938Z,23.30
2023-02-12T01:08:46.665Z,20.60
2023-02-12T01:11:20.611Z,22.10
2023-02-12T01:13:51.418Z,19.80
2023-02-12T01:16:21.909Z,20.30
2023-02-12T01:18:55.501Z,19.80
2023-02-12T01:21:31.135Z,20.70
2023-02-12T01:23:59.402Z,23.80
2023-02-12T01:26:28.911Z,17.10
2023-02-12T01:28:59.374Z,21.20
2023-02-12T01:31:30.890Z,19.60
2023-02-12T01:34:04.906Z,20.20
2023-02-12T01:36:34.825Z,23.20
2023-02-12T01:39:04.614Z,17.80
2023-02-12T01:41:36.255Z,20.70
2023-02-12T01:44:21.522Z,17.60
2023-02-12T01:46:55.110Z,21.80
2023-02-12T01:49:27.106Z,17.10
2023-02-12T01:52:19.882Z,16.40
2023-02-12T01:54:49.468Z,19.60
2023-02-12T01:57:19.076Z,19.80
2023-02-12T01:59:49.278Z,19.40
2023-02-12T02:02:17.577Z,20.00
2023-02-12T02:04:51.345Z,18.60
2023-02-12T02:07:24.774Z,18.80
2023-02-12T02:09:54.076Z,17.40
2023-02-12T02:12:44.781Z,23.30
2023-02-12T02:15:14.278Z,18.80
2023-02-12T02:17:47.677Z,22.40
2023-02-12T02:20:22.932Z,18.60
2023-02-12T02:23:07.072Z,21.10
2023-02-12T02:25:55.196Z,22.40
2023-02-12T02:28:34.204Z,18.70
2023-02-12T02:31:05.437Z,15.10
2023-02-12T02:33:54.442Z,17.40
2023-02-12T02:36:35.310Z,18.30
2023-02-12T02:39:15.350Z,18.60
2023-02-12T02:42:00.932Z,19.70
2023-02-12T02:44:46.946Z,19.50
2023-02-12T02:47:15.666Z,18.60
2023-02-12T02:49:58.231Z,21.00
2023-02-12T02:52:42.074Z,16.60
2023-02-12T02:55:11.375Z,17.80
2023-02-12T02:57:51.770Z,21.10
2023-02-12T03:00:22.219Z,22.00
2023-02-12T03:03:05.128Z,20.10
2023-02-12T03:05:40.978Z,17.30
2023-02-12T03:08:15.054Z,16.20
2023-02-12T03:10:46.320Z,16.80
2023-02-12T03:13:47.260Z,19.50
2023-02-12T03:16:21.705Z,21.30
2023-02-12T03:19:02.215Z,19.40
2023-02-12T03:21:43.089Z,17.40
2023-02-12T03:24:28.191Z,19.60
2023-02-12T03:27:19.782Z,19.30
2023-02-12T03:29:48.294Z,26.10
2023-02-12T03:33:19.722Z,21.80
2023-02-12T03:36:16.168Z,20.70
2023-02-12T03:38:47.513Z,24.00
2023-02-12T03:41:19.574Z,18.90
2023-02-12T03:44:04.530Z,19.60
2023-02-12T03:46:41.429Z,23.60
2023-02-12T03:49:18.077Z,21.30
2023-02-12T03:51:46.382Z,23.30
2023-02-12T03:54:20.695Z,23.70
2023-02-12T03:57:08.828Z,22.40
2023-02-12T03:59:43.138Z,19.50
2023-02-12T04:02:11.688Z,23.70
2023-02-12T04:04:40.171Z,18.70
2023-02-12T04:07:10.029Z,22.70
2023-02-12T04:09:38.395Z,22.50
2023-02-12T04:12:22.553Z,21.20
2023-02-12T04:15:17.019Z,22.10
2023-02-12T04:18:17.356Z,21.70
2023-02-12T04:20:49.040Z,22.40
2023-02-12T04:23:39.006Z,22.00
2023-02-12T04:26:33.524Z,21.80
2023-02-12T04:29:01.776Z,21.90
2023-02-12T04:31:30.935Z,23.10
2023-02-12T04:34:15.938Z,21.30
2023-02-12T04:36:55.070Z,22.40
2023-02-12T04:39:26.522Z,22.60
2023-02-12T04:41:59.300Z,22.70
2023-02-12T04:44:34.751Z,22.60
2023-02-12T04:47:05.887Z,22.30
2023-02-12T04:49:34.268Z,24.70
2023-02-12T04:52:02.749Z,20.80
2023-02-12T05:02:20.736Z,21.00
2023-02-12T05:04:50.607Z,26.50
2023-02-12T05:07:18.825Z,24.20
2023-02-12T05:09:47.680Z,22.20
2023-02-12T05:12:15.994Z,27.20
2023-02-12T05:14:46.986Z,27.20
2023-02-12T05:17:15.603Z,23.90
2023-02-12T05:19:43.861Z,24.10
2023-02-12T05:22:13.293Z,24.20
2023-02-12T05:24:46.794Z,23.20
2023-02-12T05:27:15.069Z,23.10
2023-02-12T05:29:43.452Z,25.00
2023-02-12T05:32:11.985Z,27.40
2023-02-12T05:34:40.715Z,24.00
2023-02-12T05:37:09.195Z,23.20
2023-02-12T05:39:37.636Z,23.10
2023-02-12T05:42:10.943Z,25.30
2023-02-12T05:44:47.435Z,23.90
2023-02-12T05:47:15.751Z,23.00
2023-02-12T05:49:43.989Z,23.70
2023-02-12T05:52:12.681Z,20.30
2023-02-12T05:54:40.886Z,21.90
2023-02-12T05:57:09.228Z,21.40
2023-02-12T05:59:42.402Z,27.40
2023-02-12T06:02:10.789Z,23.80
2023-02-12T06:04:39.121Z,24.40
2023-02-12T06:07:08.197Z,24.50
2023-02-12T06:09:36.645Z,24.40
2023-02-12T06:12:05.047Z,24.10
2023-02-12T06:14:33.385Z,23.40
2023-02-12T06:17:03.293Z,24.90
2023-02-12T06:19:31.758Z,22.30
2023-02-12T06:22:00.481Z,21.70
2023-02-12T06:24:32.814Z,24.80
2023-02-12T06:27:01.952Z,23.90
2023-02-12T06:29:30.515Z,24.30
2023-02-12T06:32:02.437Z,27.40
2023-02-12T06:34:31.496Z,24.10
2023-02-12T06:36:59.669Z,25.20
2023-02-12T06:39:34.629Z,22.40
2023-02-12T06:42:02.948Z,24.70
2023-02-12T06:44:31.539Z,26.00
2023-02-12T06:46:59.843Z,28.60
2023-02-12T06:49:28.240Z,30.80
2023-02-12T06:51:56.444Z,32.00
2023-02-12T06:54:29.614Z,38.70
2023-02-12T06:56:57.764Z,38.70
2023-02-12T06:59:25.874Z,43.90
2023-02-12T07:01:54.582Z,39.70
2023-02-12T07:04:22.900Z,41.10
2023-02-12T07:06:52.290Z,40.10
2023-02-12T07:09:20.905Z,40.00
2023-02-12T07:11:54.174Z,29.60
2023-02-12T07:14:27.805Z,28.10
2023-02-12T07:16:57.348Z,27.90
2023-02-12T07:19:25.969Z,25.60
2023-02-12T07:21:54.693Z,27.10
2023-02-12T07:24:22.920Z,20.10
2023-02-12T07:26:53.456Z,19.70
2023-02-12T07:29:21.642Z,21.20
2023-02-12T07:31:49.999Z,24.10
2023-02-12T07:34:19.058Z,19.00
2023-02-12T07:36:47.230Z,20.50
2023-02-12T07:39:16.144Z,19.00
2023-02-12T07:41:44.412Z,20.50
2023-02-12T07:44:16.007Z,19.20
2023-02-12T07:46:48.654Z,20.80
2023-02-12T07:49:20.764Z,16.80
2023-02-12T07:51:49.885Z,11.90
2023-02-12T07:54:18.824Z,9.90
2023-02-12T07:56:53.464Z,6.60
2023-02-12T07:59:22.387Z,6.70
2023-02-12T08:01:51.892Z,4.40
2023-02-12T08:04:21.834Z,4.10
2023-02-12T08:06:55.484Z,4.70
2023-02-12T08:09:33.189Z,4.10
2023-02-12T08:12:07.149Z,3.60
2023-02-12T08:14:41.207Z,6.50
2023-02-12T08:17:09.586Z,5.50
2023-02-12T08:19:37.866Z,3.80
2023-02-12T08:22:06.804Z,2.90
2023-02-12T08:24:35.104Z,3.20
2023-02-12T08:27:03.458Z,2.60
2023-02-12T08:29:37.112Z,5.30
2023-02-12T08:32:06.670Z,3.40
2023-02-12T08:34:35.827Z,3.40
2023-02-12T08:37:05.521Z,3.70
2023-02-12T08:39:34.198Z,4.50
2023-02-12T08:42:02.412Z,4.70
2023-02-12T08:44:31.801Z,4.30
2023-02-12T08:47:03.301Z,4.50
2023-02-12T08:49:32.903Z,2.80
2023-02-12T08:52:02.662Z,3.30
2023-02-12T08:54:34.473Z,4.60
2023-02-12T08:57:02.729Z,2.60
2023-02-12T08:59:31.258Z,3.40
2023-02-12T09:02:01.125Z,5.30
2023-02-12T09:04:30.393Z,6.00
2023-02-12T09:06:59.766Z,3.00
2023-02-12T09:09:28.155Z,3.60
2023-02-12T09:12:07.852Z,2.90
2023-02-12T09:14:36.535Z,2.40
2023-02-12T09:17:04.909Z,3.60
2023-02-12T09:19:33.594Z,2.60
2023-02-12T09:22:01.917Z,3.60
2023-02-12T09:24:30.367Z,3.10
2023-02-12T09:26:58.515Z,3.10
2023-02-12T09:29:27.478Z,2.70
2023-02-12T09:31:56.169Z,3.30
2023-02-12T09:34:24.888Z,4.80
2023-02-12T09:36:59.098Z,3.80
2023-02-12T09:39:30.698Z,2.40
2023-02-12T09:42:20.294Z,2.90
2023-02-12T09:45:01.469Z,2.70
2023-02-12T09:47:50.836Z,2.70
2023-02-12T09:50:30.310Z,2.70
2023-02-12T09:53:04.481Z,3.60
2023-02-12T09:55:34.350Z,4.90
2023-02-12T09:58:09.792Z,3.30
2023-02-12T10:00:38.443Z,3.70
2023-02-12T10:03:15.946Z,2.70
2023-02-12T10:05:54.599Z,2.60
2023-02-12T10:08:43.958Z,2.40
2023-02-12T10:11:32.283Z,2.50
2023-02-12T10:14:09.542Z,3.30
2023-02-12T10:16:58.067Z,2.10
2023-02-12T10:19:39.184Z,3.70
2023-02-12T10:22:19.645Z,3.60
2023-02-12T10:25:25.431Z,3.10
2023-02-12T10:27:58.149Z,3.60
2023-02-12T10:30:53.177Z,4.60
2023-02-12T10:33:25.908Z,1.90
2023-02-12T10:36:02.416Z,2.50
2023-02-12T10:38:32.963Z,3.60
2023-02-12T10:41:02.696Z,3.30
2023-02-12T10:43:31.345Z,4.10
2023-02-12T10:45:59.558Z,3.90
2023-02-12T10:48:32.199Z,2.30
2023-02-12T10:51:09.764Z,3.00
2023-02-12T10:53:40.625Z,5.00
2023-02-12T10:56:22.007Z,3.20
2023-02-12T10:58:50.493Z,5.90
2023-02-12T11:01:29.239Z,4.10
2023-02-12T11:03:59.131Z,9.00
2023-02-12T11:06:34.822Z,4.70
2023-02-12T11:09:11.093Z,2.50
2023-02-12T11:11:39.528Z,4.50
2023-02-12T11:14:22.054Z,2.80
2023-02-12T11:16:55.410Z,2.60
2023-02-12T11:19:28.393Z,7.70
2023-02-12T11:22:11.945Z,3.10
2023-02-12T11:24:46.682Z,1.90
2023-02-12T11:27:26.525Z,6.20
2023-02-12T11:30:14.493Z,3.10
2023-02-12T11:32:44.394Z,4.70
2023-02-12T11:35:26.409Z,2.40
2023-02-12T11:37:58.392Z,3.70
2023-02-12T11:40:36.143Z,3.40
2023-02-12T11:43:06.138Z,4.10
2023-02-12T11:45:49.877Z,4.10
2023-02-12T11:48:38.398Z,3.90
2023-02-12T11:51:09.360Z,2.20
2023-02-12T11:53:41.074Z,2.80
2023-02-12T11:56:11.685Z,4.20
2023-02-12T11:58:41.584Z,3.10
2023-02-12T12:01:30.024Z,6.50
2023-02-12T12:04:14.532Z,8.50
2023-02-12T12:07:03.678Z,3.00
2023-02-12T12:10:02.399Z,5.20
2023-02-12T12:12:53.414Z,3.40
2023-02-12T12:15:57.590Z,5.90
2023-02-12T12:19:06.837Z,6.00
2023-02-12T12:21:51.377Z,3.20
2023-02-12T12:24:36.833Z,5.20
2023-02-12T12:27:47.071Z,4.20
2023-02-12T12:31:00.828Z,12.40
2023-02-12T12:33:45.820Z,6.10
2023-02-12T12:36:30.337Z,5.90
2023-02-12T12:39:53.379Z,12.10
2023-02-12T12:43:25.789Z,6.50
2023-02-12T12:46:37.744Z,4.30
2023-02-12T12:49:35.192Z,6.00
2023-02-12T12:52:28.908Z,11.00
2023-02-12T12:55:13.931Z,7.10
2023-02-12T12:58:12.342Z,10.60
2023-02-12T13:01:23.142Z,7.10
2023-02-12T13:04:30.173Z,4.80
2023-02-12T13:15:40.910Z,4.80
2023-02-12T13:18:13.784Z,5.60
2023-02-12T13:20:49.296Z,11.70
2023-02-12T13:23:31.530Z,7.20
2023-02-12T13:26:10.824Z,10.60
2023-02-12T13:29:05.746Z,6.10
2023-02-12T13:31:34.496Z,12.70
2023-02-12T13:34:04.272Z,10.60
2023-02-12T13:36:32.155Z,4.50
2023-02-12T13:39:04.916Z,7.80
2023-02-12T13:41:32.364Z,7.70
2023-02-12T13:44:31.307Z,6.80
2023-02-12T13:47:11.181Z,5.50
2023-02-12T13:49:45.297Z,8.30
2023-02-12T13:52:40.361Z,7.60
2023-02-12T13:55:31.772Z,13.90
2023-02-12T13:58:37.604Z,9.20
2023-02-12T14:01:07.335Z,14.90
2023-02-12T14:03:36.000Z,4.20
2023-02-12T14:06:18.912Z,10.00
2023-02-12T14:08:56.232Z,5.80
2023-02-12T14:11:24.060Z,8.20
2023-02-12T14:13:59.951Z,9.80
2023-02-12T14:16:31.076Z,8.80
2023-02-12T14:19:36.723Z,10.10
2023-02-12T14:22:14.694Z,4.80
2023-02-12T14:24:48.211Z,6.10
2023-02-12T14:27:32.194Z,6.10
2023-02-12T14:30:01.048Z,4.70
2023-02-12T14:32:44.877Z,5.00
2023-02-12T14:35:38.467Z,6.60
2023-02-12T14:38:12.096Z,7.30
2023-02-12T14:40:44.097Z,8.30
2023-02-12T14:43:30.790Z,9.60
2023-02-12T14:46:24.568Z,7.30
2023-02-12T14:48:59.513Z,6.70
2023-02-12T14:51:33.105Z,7.70
2023-02-12T14:54:00.563Z,5.00
2023-02-12T14:56:27.859Z,6.00
2023-02-12T14:58:58.421Z,16.10
2023-02-12T15:01:29.614Z,11.80
2023-02-12T15:03:56.983Z,6.30
2023-02-12T15:06:37.595Z,8.60
2023-02-12T15:09:13.554Z,4.50
2023-02-12T15:12:06.231Z,10.00
2023-02-12T15:14:35.661Z,4.50
2023-02-12T15:17:14.729Z,15.00
2023-02-12T15:20:02.130Z,6.40
2023-02-12T15:22:36.060Z,6.50
2023-02-12T15:25:30.201Z,5.40
2023-02-12T15:35:50.873Z,8.60
2023-02-12T15:38:36.099Z,9.50
2023-02-12T15:41:05.070Z,6.00
2023-02-12T15:43:40.947Z,4.80
2023-02-12T15:46:21.649Z,7.70
2023-02-12T15:48:50.247Z,7.60
2023-02-12T15:51:44.035Z,5.00
2023-02-12T15:54:19.257Z,5.50
2023-02-12T15:56:47.632Z,5.40
2023-02-12T15:59:21.481Z,6.30
2023-02-12T16:02:07.544Z,6.50
2023-02-12T16:04:40.796Z,6.20
2023-02-12T16:07:10.298Z,5.40
2023-02-12T16:09:39.704Z,8.80
2023-02-12T16:12:19.003Z,5.60
2023-02-12T16:14:55.164Z,8.50
2023-02-12T16:17:39.737Z,5.30
2023-02-12T16:20:20.292Z,7.60
2023-02-12T16:22:49.845Z,9.40
2023-02-12T16:25:26.633Z,4.40
2023-02-12T16:28:01.644Z,6.10
2023-02-12T16:30:32.392Z,4.30
2023-02-12T16:33:01.936Z,5.90
2023-02-12T16:35:32.947Z,5.40
2023-02-12T16:38:24.437Z,6.30
2023-02-12T16:41:18.769Z,4.30
2023-02-12T16:43:48.806Z,8.30
2023-02-12T16:46:18.161Z,6.20
2023-02-12T16:48:51.933Z,7.00
2023-02-12T16:51:25.162Z,6.70
2023-02-12T16:53:54.354Z,6.00
2023-02-12T16:56:23.163Z,5.60
2023-02-12T16:58:55.628Z,13.30
2023-02-12T17:01:29.599Z,6.40
2023-02-12T17:04:03.983Z,5.40
2023-02-12T17:06:32.851Z,4.90
2023-02-12T17:09:06.437Z,5.00
2023-02-12T17:11:35.011Z,5.50
2023-02-12T17:14:03.617Z,4.10
2023-02-12T17:16:37.317Z,4.10
2023-02-12T17:19:06.923Z,7.30
2023-02-12T17:21:44.859Z,5.60
2023-02-12T17:24:22.033Z,5.40
2023-02-12T17:26:56.465Z,5.90
2023-02-12T17:29:25.310Z,6.90
2023-02-12T17:31:54.208Z,6.40
2023-02-12T17:34:23.186Z,4.90
2023-02-12T17:36:52.453Z,5.10
2023-02-12T17:39:21.317Z,3.80
2023-02-12T17:41:51.930Z,4.40
2023-02-12T17:44:20.701Z,4.30
2023-02-12T17:46:51.018Z,7.00
2023-02-12T17:49:19.406Z,4.10
2023-02-12T17:51:48.781Z,5.20
2023-02-12T17:54:18.966Z,7.80
2023-02-12T17:56:52.595Z,5.40
2023-02-12T17:59:26.021Z,7.00
2023-02-12T18:01:59.416Z,7.80
2023-02-12T18:04:32.015Z,4.90
2023-02-12T18:07:00.913Z,7.80
2023-02-12T18:09:29.378Z,5.40
2023-02-12T18:11:59.159Z,6.90
2023-02-12T18:14:27.724Z,4.60
2023-02-12T18:16:57.346Z,4.30
2023-02-12T18:19:27.180Z,6.90
2023-02-12T18:22:04.161Z,6.80
2023-02-12T18:24:35.276Z,4.40
2023-02-12T18:27:03.883Z,3.10
2023-02-12T18:29:33.678Z,4.80
2023-02-12T18:32:02.077Z,5.30
2023-02-12T18:42:28.970Z,6.10
2023-02-12T18:44:57.549Z,3.50
2023-02-12T18:47:25.914Z,5.00
2023-02-12T18:49:54.341Z,5.10
2023-02-12T18:52:28.084Z,4.60
2023-02-12T18:54:56.840Z,4.00
2023-02-12T18:57:25.444Z,4.30
2023-02-12T18:59:58.943Z,5.80
2023-02-12T19:02:27.458Z,6.60
2023-02-12T19:04:56.392Z,5.10
2023-02-12T19:07:27.377Z,5.90
2023-02-12T19:09:56.189Z,6.10
2023-02-12T19:12:26.281Z,3.40
2023-02-12T19:15:01.189Z,3.70
2023-02-12T19:17:30.175Z,6.70
2023-02-12T19:19:58.510Z,5.80
2023-02-12T19:22:26.836Z,4.90
2023-02-12T19:24:55.333Z,3.40
2023-02-12T19:27:30.867Z,4.90
2023-02-12T19:30:00.265Z,6.40
2023-02-12T19:32:29.053Z,5.40
2023-02-12T19:34:57.810Z,4.60
2023-02-12T19:37:26.116Z,4.70
2023-02-12T19:39:54.477Z,5.10
2023-02-12T19:42:23.006Z,4.20
2023-02-12T19:44:51.181Z,6.10
2023-02-12T19:47:24.844Z,5.20
2023-02-12T19:49:53.451Z,5.70
2023-02-12T19:52:21.677Z,4.20
2023-02-12T19:54:55.854Z,5.10
2023-02-12T19:57:25.094Z,5.30
2023-02-12T19:59:58.975Z,5.10
2023-02-12T20:02:27.632Z,3.20
2023-02-12T20:04:56.180Z,3.30
2023-02-12T20:07:26.172Z,2.50
2023-02-12T20:09:54.784Z,5.40
2023-02-12T20:12:22.984Z,4.70
2023-02-12T20:14:56.851Z,7.40
2023-02-12T20:17:25.227Z,4.70
2023-02-12T20:19:54.494Z,5.10
2023-02-12T20:22:27.906Z,4.70
2023-02-12T20:24:56.155Z,4.80
2023-02-12T20:27:24.829Z,2.40
2023-02-12T20:29:53.554Z,3.40
2023-02-12T20:32:22.653Z,4.70
2023-02-12T20:34:51.847Z,3.90
2023-02-12T20:37:20.849Z,4.40
2023-02-12T20:39:49.457Z,5.00
2023-02-12T20:42:17.951Z,4.20
2023-02-12T20:44:47.027Z,3.80
2023-02-12T20:47:15.619Z,5.60
2023-02-12T20:49:44.126Z,4.90
2023-02-12T20:52:17.846Z,4.10
2023-02-12T20:54:49.119Z,3.90
2023-02-12T20:57:18.415Z,4.50
2023-02-12T20:59:49.192Z,3.20
2023-02-12T21:02:18.701Z,5.00
2023-02-12T21:04:46.987Z,3.10
2023-02-12T21:07:15.310Z,4.00
2023-02-12T21:09:44.022Z,3.40
2023-02-12T21:12:12.644Z,6.80
2023-02-12T21:14:41.048Z,3.60
2023-02-12T21:17:13.069Z,5.00
2023-02-12T21:19:41.357Z,5.10
2023-02-12T21:22:09.591Z,3.10
2023-02-12T21:24:42.939Z,4.30
2023-02-12T21:27:12.161Z,10.80
2023-02-12T21:29:41.846Z,4.70
2023-02-12T21:32:10.545Z,4.00
2023-02-12T21:34:40.257Z,3.50
2023-02-12T21:37:13.642Z,4.60
2023-02-12T21:39:43.157Z,8.40
2023-02-12T21:42:11.543Z,8.40
2023-02-12T21:44:40.142Z,5.10
2023-02-12T21:47:09.114Z,8.10
2023-02-12T21:49:37.906Z,12.50
2023-02-12T21:52:12.043Z,4.80
2023-02-12T21:54:40.829Z,6.50
2023-02-12T21:57:09.107Z,3.40
2023-02-12T21:59:37.586Z,8.20
2023-02-12T22:02:06.209Z,5.70
2023-02-12T22:04:34.630Z,3.80
2023-02-12T22:07:03.761Z,4.10
2023-02-12T22:09:40.701Z,3.80
2023-02-12T22:12:14.325Z,5.10
2023-02-12T22:14:43.298Z,3.90
2023-02-12T22:17:12.083Z,4.80
2023-02-12T22:19:46.098Z,5.20
2023-02-12T22:22:14.471Z,3.30
2023-02-12T22:24:42.872Z,4.30
2023-02-12T22:27:11.862Z,3.70
2023-02-12T22:29:40.116Z,3.10
2023-02-12T22:32:08.558Z,4.30
2023-02-12T22:34:42.170Z,3.00
2023-02-12T22:37:10.881Z,5.00
2023-02-12T22:39:39.117Z,3.70
2023-02-12T22:42:07.844Z,6.00
2023-02-12T22:44:37.061Z,6.30
2023-02-12T22:47:05.319Z,5.70
2023-02-12T22:49:38.730Z,4.90
2023-02-12T22:52:07.113Z,5.20
2023-02-12T22:54:42.139Z,6.90
2023-02-12T22:57:10.349Z,7.20
2023-02-12T22:59:38.691Z,9.40
2023-02-12T23:02:15.720Z,7.60
2023-02-12T23:04:44.237Z,5.10
2023-02-12T23:07:12.518Z,7.00
2023-02-12T23:09:42.292Z,4.30
2023-02-12T23:12:15.691Z,7.20
2023-02-12T23:14:44.118Z,6.30
2023-02-12T23:17:12.571Z,6.60
2023-02-12T23:19:40.738Z,6.90
2023-02-12T23:22:09.150Z,8.40
2023-02-12T23:24:37.541Z,8.10
2023-02-12T23:27:06.233Z,7.40
2023-02-12T23:29:35.436Z,7.20
2023-02-12T23:32:04.135Z,6.00
2023-02-12T23:34:32.691Z,5.20
2023-02-12T23:37:03.172Z,6.40
2023-02-12T23:39:31.838Z,7.20
2023-02-12T23:42:00.391Z,5.60
2023-02-12T23:44:34.212Z,6.80
2023-02-12T23:47:07.459Z,8.10
2023-02-12T23:49:37.287Z,6.00
2023-02-12T23:52:05.588Z,8.20
2023-02-12T23:54:34.629Z,7.80
2023-02-12T23:57:08.038Z,5.00
2023-02-12T23:59:37.080Z,5.20
